createdAt,value
2019-03-04T00:01:53.276Z,95313.96
2019-03-04T00:04:26.463Z,95309.00
2019-03-04T00:06:57.654Z,95307.11
2019-03-04T00:09:31.185Z,95302.92
2019-03-04T00:12:02.406Z,95295.45
2019-03-04T00:14:36.164Z,95294.52
2019-03-04T00:17:08.585Z,95291.83
2019-03-04T00:19:41.356Z,95283.87
2019-03-04T00:22:15.526Z,95278.28
2019-03-04T00:24:48.486Z,95280.20
2019-03-04T00:27:21.368Z,95270.92
2019-03-04T00:29:54.401Z,95261.24
2019-03-04T00:32:26.521Z,95257.27
2019-03-04T00:34:59.503Z,95253.77
2019-03-04T00:37:31.558Z,95250.06
2019-03-04T00:40:09.991Z,95256.67
2019-03-04T00:42:41.437Z,95251.16
2019-03-04T00:45:14.548Z,95245.63
2019-03-04T00:47:47.438Z,95246.50
2019-03-04T00:50:20.548Z,95241.39
2019-03-04T00:52:53.502Z,95248.12
2019-03-04T00:55:27.401Z,95235.38
2019-03-04T00:57:59.561Z,95239.71
2019-03-04T01:00:31.946Z,95173.89
2019-03-04T01:03:06.354Z,95243.38
2019-03-04T01:05:38.663Z,95245.94
2019-03-04T01:08:13.299Z,95246.26
2019-03-04T01:10:44.674Z,95252.87
2019-03-04T01:13:17.855Z,95251.31
2019-03-04T01:15:52.439Z,95257.16
2019-03-04T01:18:25.423Z,95246.34
2019-03-04T01:20:59.258Z,95232.42
2019-03-04T01:27:10.510Z,95240.55
2019-03-04T01:29:41.934Z,95235.84
2019-03-04T01:32:15.841Z,95228.17
2019-03-04T01:34:49.967Z,95236.34
2019-03-04T01:37:22.395Z,95235.03
2019-03-04T01:39:54.970Z,95233.52
2019-03-04T01:42:27.577Z,95233.23
2019-03-04T01:45:01.578Z,95236.94
2019-03-04T01:47:32.798Z,95235.80
2019-03-04T01:50:09.158Z,95233.89
2019-03-04T01:52:41.687Z,95226.64
2019-03-04T01:55:15.731Z,95232.42
2019-03-04T01:57:47.909Z,95226.27
2019-03-04T02:00:21.624Z,95226.18
2019-03-04T02:02:55.470Z,95231.89
2019-03-04T02:05:27.455Z,95227.72
2019-03-04T02:08:01.501Z,95237.33
2019-03-04T02:10:33.881Z,95235.58
2019-03-04T02:13:05.979Z,95220.23
2019-03-04T02:15:38.929Z,95218.83
2019-03-04T02:18:11.957Z,95224.44
2019-03-04T02:20:45.322Z,95224.48
2019-03-04T02:23:18.838Z,95227.09
2019-03-04T02:26:11.991Z,95226.13
2019-03-04T02:28:43.973Z,95221.16
2019-03-04T02:31:17.961Z,95223.39
2019-03-04T02:33:51.094Z,95217.70
2019-03-04T02:36:24.068Z,95225.28
2019-03-04T02:38:57.074Z,95226.09
2019-03-04T02:41:30.250Z,95224.41
2019-03-04T02:44:03.039Z,95224.77
2019-03-04T02:46:37.851Z,95219.42
2019-03-04T02:49:13.995Z,95218.67
2019-03-04T02:51:48.263Z,95212.88
2019-03-04T02:54:23.325Z,95210.46
2019-03-04T02:56:57.023Z,95205.31
2019-03-04T02:59:30.077Z,95198.02
2019-03-04T03:02:04.750Z,95208.67
2019-03-04T03:04:37.268Z,95201.30
2019-03-04T03:07:10.505Z,95200.09
2019-03-04T03:09:41.747Z,95196.04
2019-03-04T03:12:15.141Z,95192.08
2019-03-04T03:14:48.192Z,95187.73
2019-03-04T03:17:21.447Z,95179.42
2019-03-04T03:19:54.319Z,95178.64
2019-03-04T03:22:27.231Z,95182.34
2019-03-04T03:25:00.450Z,95185.48
2019-03-04T03:27:33.293Z,95183.06
2019-03-04T03:30:08.375Z,95188.98
2019-03-04T03:32:40.587Z,95188.31
2019-03-04T03:35:12.531Z,95180.48
2019-03-04T03:37:45.258Z,95178.10
2019-03-04T03:40:18.563Z,95182.94
2019-03-04T03:42:51.368Z,95185.56
2019-03-04T03:45:24.310Z,95180.91
2019-03-04T03:47:57.369Z,95175.39
2019-03-04T03:50:30.552Z,95169.76
2019-03-04T03:53:01.736Z,95171.74
2019-03-04T03:55:35.551Z,95166.09
2019-03-04T03:58:09.482Z,95158.70
2019-03-04T04:00:41.736Z,95158.57
2019-03-04T04:03:13.967Z,95161.22
2019-03-04T04:05:45.382Z,95157.02
2019-03-04T04:08:18.499Z,95155.13
2019-03-04T04:10:51.523Z,95153.91
2019-03-04T04:13:23.547Z,95143.14
2019-03-04T04:15:58.032Z,95132.08
2019-03-04T04:18:29.622Z,95135.88
2019-03-04T04:21:03.220Z,95130.16
2019-03-04T04:23:35.597Z,95124.06
2019-03-04T04:26:22.015Z,95121.22
2019-03-04T04:29:13.442Z,95118.91
2019-03-04T04:31:45.679Z,95110.61
2019-03-04T04:34:23.175Z,95107.73
2019-03-04T04:36:57.735Z,95099.83
2019-03-04T04:39:29.724Z,95100.09
2019-03-04T04:42:04.615Z,95092.55
2019-03-04T04:44:36.799Z,95101.08
2019-03-04T04:47:10.245Z,95108.78
2019-03-04T04:49:41.974Z,95098.71
2019-03-04T04:52:14.674Z,95104.17
2019-03-04T04:54:50.544Z,95099.83
2019-03-04T04:57:24.621Z,95099.70
2019-03-04T04:59:57.696Z,95092.06
2019-03-04T05:02:30.728Z,95089.45
2019-03-04T05:05:03.811Z,95080.36
2019-03-04T05:07:36.721Z,95075.95
2019-03-04T05:10:12.339Z,95075.01
2019-03-04T05:12:44.958Z,95066.05
2019-03-04T05:15:18.470Z,95052.83
2019-03-04T05:17:50.846Z,95047.58
2019-03-04T05:20:23.776Z,95045.30
2019-03-04T05:22:56.806Z,95041.67
2019-03-04T05:25:29.798Z,95040.33
2019-03-04T05:28:04.606Z,95038.36
2019-03-04T05:30:35.776Z,95029.47
2019-03-04T05:33:09.569Z,95026.01
2019-03-04T05:35:41.737Z,95027.45
2019-03-04T05:38:14.948Z,95019.59
2019-03-04T05:40:49.196Z,95019.52
2019-03-04T05:43:21.955Z,95017.80
2019-03-04T05:45:55.715Z,95019.97
2019-03-04T05:48:26.939Z,95009.45
2019-03-04T05:50:59.909Z,95013.86
2019-03-04T05:53:33.780Z,95018.01
2019-03-04T05:56:07.650Z,95005.28
2019-03-04T05:58:41.466Z,94998.86
2019-03-04T06:01:23.802Z,95006.04
2019-03-04T06:04:00.385Z,95001.84
2019-03-04T06:07:01.417Z,94994.66
2019-03-04T06:09:32.996Z,94992.75
2019-03-04T06:12:07.045Z,94993.48
2019-03-04T06:14:39.521Z,94993.95
2019-03-04T06:17:12.261Z,94992.92
2019-03-04T06:19:45.093Z,94995.93
2019-03-04T06:22:18.076Z,94995.28
2019-03-04T06:24:51.470Z,94994.41
2019-03-04T06:27:24.251Z,94990.77
2019-03-04T06:29:57.134Z,94992.84
2019-03-04T06:32:30.029Z,94994.80
2019-03-04T06:35:04.770Z,94988.16
2019-03-04T06:37:36.121Z,94994.66
2019-03-04T06:40:10.836Z,94992.37
2019-03-04T06:42:42.421Z,94993.64
2019-03-04T06:45:15.926Z,94995.73
2019-03-04T06:47:48.139Z,94993.84
2019-03-04T06:50:49.216Z,94978.89
2019-03-04T06:53:29.906Z,94980.20
2019-03-04T06:56:12.994Z,94976.55
2019-03-04T06:58:48.263Z,94974.98
2019-03-04T07:01:26.549Z,94979.03
2019-03-04T07:04:13.172Z,94978.86
2019-03-04T07:06:45.405Z,94974.26
2019-03-04T07:09:20.646Z,94970.27
2019-03-04T07:11:54.842Z,94960.76
2019-03-04T07:14:27.394Z,94955.91
2019-03-04T07:17:03.243Z,94947.23
2019-03-04T07:19:38.087Z,94951.02
2019-03-04T07:22:11.700Z,94948.28
2019-03-04T07:24:44.475Z,94939.98
2019-03-04T07:27:15.668Z,94933.11
2019-03-04T07:29:48.396Z,94938.75
2019-03-04T07:32:21.671Z,94927.14
2019-03-04T07:34:56.507Z,94924.80
2019-03-04T07:37:29.650Z,94916.82
2019-03-04T07:40:03.732Z,94918.91
2019-03-04T07:42:38.219Z,94919.63
2019-03-04T07:45:14.304Z,94915.95
2019-03-04T07:47:46.864Z,94910.50
2019-03-04T07:50:18.469Z,94908.07
2019-03-04T07:52:57.944Z,94899.92
2019-03-04T07:55:31.255Z,94893.78
2019-03-04T07:58:03.482Z,94877.11
2019-03-04T08:00:36.485Z,94873.13
2019-03-04T08:03:09.754Z,94869.86
2019-03-04T08:05:43.771Z,94861.80
2019-03-04T08:08:15.488Z,94856.80
2019-03-04T08:11:40.704Z,94845.83
2019-03-04T08:14:13.604Z,94837.18
2019-03-04T08:16:47.729Z,94836.13
2019-03-04T08:19:22.110Z,94832.64
2019-03-04T08:21:55.061Z,94825.70
2019-03-04T08:24:29.175Z,94822.03
2019-03-04T08:27:00.677Z,94822.75
2019-03-04T08:29:33.660Z,94816.27
2019-03-04T08:32:06.867Z,94809.89
2019-03-04T08:34:39.830Z,94809.63
2019-03-04T08:37:12.839Z,94806.80
2019-03-04T08:39:45.789Z,94799.66
2019-03-04T08:42:18.596Z,94801.89
2019-03-04T08:44:51.791Z,94795.58
2019-03-04T08:47:24.760Z,94795.98
2019-03-04T08:49:57.778Z,94780.28
2019-03-04T08:52:31.854Z,94775.06
2019-03-04T08:55:04.495Z,94776.69
2019-03-04T08:57:35.703Z,94772.35
2019-03-04T09:00:13.727Z,94768.83
2019-03-04T09:02:45.903Z,94762.55
2019-03-04T09:05:21.193Z,94764.59
2019-03-04T09:07:54.865Z,94760.66
2019-03-04T09:10:29.438Z,94753.41
2019-03-04T09:13:02.906Z,94747.33
2019-03-04T09:15:35.899Z,94731.48
2019-03-04T09:18:13.047Z,94729.23
2019-03-04T09:20:46.157Z,94715.25
2019-03-04T09:23:19.979Z,94715.92
2019-03-04T09:26:00.385Z,94715.09
2019-03-04T09:28:33.941Z,94702.25
2019-03-04T09:31:06.932Z,94702.09
2019-03-04T09:33:39.956Z,94694.86
2019-03-04T09:36:12.948Z,94699.02
2019-03-04T09:38:46.038Z,94691.72
2019-03-04T09:41:19.452Z,94672.05
2019-03-04T09:43:53.116Z,94669.36
2019-03-04T09:46:25.256Z,94673.90
2019-03-04T09:48:58.169Z,94675.52
2019-03-04T09:51:29.976Z,94668.10
2019-03-04T09:54:04.185Z,94661.91
2019-03-04T09:56:37.654Z,94655.98
2019-03-04T09:59:09.305Z,94652.30
2019-03-04T10:01:48.961Z,94649.66
2019-03-04T10:04:56.066Z,94642.84
2019-03-04T10:07:53.604Z,94637.05
2019-03-04T10:11:07.974Z,94631.12
2019-03-04T10:14:15.458Z,94627.42
2019-03-04T10:17:34.651Z,94619.41
2019-03-04T10:20:59.878Z,94617.30
2019-03-04T10:24:03.523Z,94601.58
2019-03-04T10:27:32.036Z,94595.39
2019-03-04T10:30:28.739Z,94597.33
2019-03-04T10:33:45.534Z,94585.33
2019-03-04T10:36:56.840Z,94574.70
2019-03-04T10:39:44.363Z,94566.31
2019-03-04T10:43:09.555Z,94565.72
2019-03-04T10:46:16.801Z,94565.42
2019-03-04T10:48:49.092Z,94562.05
2019-03-04T10:51:22.088Z,94550.48
2019-03-04T10:53:54.210Z,94544.27
2019-03-04T10:56:27.326Z,94538.99
2019-03-04T10:58:59.573Z,94536.67
2019-03-04T11:01:33.758Z,94528.89
2019-03-04T11:04:06.375Z,94528.71
2019-03-04T11:06:39.474Z,94523.67
2019-03-04T11:09:12.273Z,94518.52
2019-03-04T11:11:45.469Z,94508.35
2019-03-04T11:14:18.970Z,94496.98
2019-03-04T11:16:51.979Z,94496.53
2019-03-04T11:19:25.727Z,94503.50
2019-03-04T11:21:59.470Z,94491.16
2019-03-04T11:24:31.643Z,94474.52
2019-03-04T11:27:03.969Z,94466.14
2019-03-04T11:29:36.645Z,94455.17
2019-03-04T11:32:09.106Z,94448.91
2019-03-04T11:34:42.797Z,94444.43
2019-03-04T11:37:15.577Z,94426.88
2019-03-04T11:39:59.317Z,94413.87
2019-03-04T11:42:30.745Z,94411.38
2019-03-04T11:45:03.703Z,94395.42
2019-03-04T11:47:34.906Z,94390.21
2019-03-04T11:50:09.837Z,94385.71
2019-03-04T11:52:42.686Z,94383.61
2019-03-04T11:55:15.791Z,94373.18
2019-03-04T11:57:48.883Z,94380.75
2019-03-04T12:00:39.865Z,94361.84
2019-03-04T12:03:12.627Z,94348.20
2019-03-04T12:05:45.608Z,94341.58
2019-03-04T12:08:18.728Z,94324.13
2019-03-04T12:10:52.099Z,94328.99
2019-03-04T12:13:24.675Z,94326.95
2019-03-04T12:15:57.736Z,94325.46
2019-03-04T12:18:30.553Z,94320.28
2019-03-04T12:21:01.857Z,94318.43
2019-03-04T12:23:35.686Z,94304.94
2019-03-04T12:26:09.640Z,94296.66
2019-03-04T12:28:42.508Z,94296.20
2019-03-04T12:31:15.820Z,94286.06
2019-03-04T12:33:49.157Z,94289.38
2019-03-04T12:36:21.777Z,94281.73
2019-03-04T12:38:54.821Z,94277.67
2019-03-04T12:41:28.022Z,94266.16
2019-03-04T12:44:01.203Z,94260.00
2019-03-04T12:46:32.686Z,94258.17
2019-03-04T12:49:03.915Z,94255.36
2019-03-04T12:51:36.940Z,94261.66
2019-03-04T12:54:10.088Z,94257.90
2019-03-04T12:56:42.650Z,94247.73
2019-03-04T12:59:15.983Z,94237.36
2019-03-04T13:01:50.585Z,94239.97
2019-03-04T13:04:22.728Z,94229.05
2019-03-04T13:06:56.720Z,94228.30
2019-03-04T13:09:27.918Z,94230.29
2019-03-04T13:11:59.123Z,94240.79
2019-03-04T13:14:34.179Z,94246.42
2019-03-04T13:17:06.401Z,94239.84
2019-03-04T13:19:40.070Z,94228.97
2019-03-04T13:22:14.074Z,94227.45
2019-03-04T13:24:46.054Z,94217.34
2019-03-04T13:27:23.744Z,94222.61
2019-03-04T13:29:52.041Z,94216.15
2019-03-04T13:32:25.037Z,94216.94
2019-03-04T13:34:58.067Z,94210.45
2019-03-04T13:37:31.194Z,94208.16
2019-03-04T13:40:04.578Z,94212.77
2019-03-04T13:42:37.149Z,94221.37
2019-03-04T13:45:12.729Z,94214.15
2019-03-04T13:47:46.128Z,94232.38
2019-03-04T13:50:20.623Z,94224.14
2019-03-04T13:52:52.153Z,94227.07
2019-03-04T13:55:26.183Z,94239.46
2019-03-04T13:57:58.636Z,94250.80
2019-03-04T14:00:32.418Z,94254.73
2019-03-04T14:03:05.912Z,94255.47
2019-03-04T14:05:40.162Z,94266.09
2019-03-04T14:08:13.527Z,94278.83
2019-03-04T14:10:46.413Z,94273.62
2019-03-04T14:13:18.876Z,94284.47
2019-03-04T14:15:53.021Z,94283.19
2019-03-04T14:18:25.295Z,94289.70
2019-03-04T14:20:58.299Z,94294.02
2019-03-04T14:23:31.261Z,94299.97
2019-03-04T14:26:05.455Z,94306.47
2019-03-04T14:28:38.477Z,94304.89
2019-03-04T14:34:26.264Z,94324.06
2019-03-04T14:36:57.794Z,94325.38
2019-03-04T14:39:33.135Z,94332.67
2019-03-04T14:42:09.185Z,94327.45
2019-03-04T14:44:41.388Z,94328.88
2019-03-04T14:47:15.352Z,94351.73
2019-03-04T14:49:49.436Z,94348.75
2019-03-04T14:52:23.992Z,94352.75
2019-03-04T14:54:57.433Z,94356.09
2019-03-04T14:57:31.592Z,94371.80
2019-03-04T15:00:10.370Z,94390.74
2019-03-04T15:02:45.214Z,94403.73
2019-03-04T15:05:21.713Z,94430.06
2019-03-04T15:07:56.889Z,94432.06
2019-03-04T15:10:29.408Z,94448.01
2019-03-04T15:13:03.165Z,94465.88
2019-03-04T15:15:37.086Z,94480.70
2019-03-04T15:18:11.529Z,94474.28
2019-03-04T15:20:42.810Z,94493.77
2019-03-04T15:23:28.541Z,94499.48
2019-03-04T15:26:01.678Z,94510.34
2019-03-04T15:28:34.650Z,94515.88
2019-03-04T15:31:07.664Z,94547.33
2019-03-04T15:33:41.571Z,94529.44
2019-03-04T15:36:13.632Z,94550.44
2019-03-04T15:38:46.832Z,94533.38
2019-03-04T15:41:21.132Z,94560.78
2019-03-04T15:43:52.746Z,94555.05
2019-03-04T15:46:25.659Z,94564.33
2019-03-04T15:48:56.868Z,94581.22
2019-03-04T15:51:28.675Z,94583.52
2019-03-04T15:54:00.070Z,94597.25
2019-03-04T15:56:35.504Z,94603.98
2019-03-04T15:59:07.974Z,94634.77
2019-03-04T16:01:41.152Z,94667.30
2019-03-04T16:04:23.000Z,94639.17
2019-03-04T16:06:55.910Z,94665.37
2019-03-04T16:09:27.182Z,94689.94
2019-03-04T16:11:58.772Z,94676.92
2019-03-04T16:14:33.034Z,94689.54
2019-03-04T16:17:06.009Z,94692.17
2019-03-04T16:19:39.961Z,94689.41
2019-03-04T16:22:11.174Z,94709.89
2019-03-04T16:24:43.466Z,94722.86
2019-03-04T16:27:15.977Z,94732.73
2019-03-04T16:29:47.893Z,94725.31
2019-03-04T16:32:21.645Z,94730.59
2019-03-04T16:34:55.824Z,94765.02
2019-03-04T16:37:29.537Z,94746.32
2019-03-04T16:40:00.828Z,94755.80
2019-03-04T16:42:34.696Z,94752.20
2019-03-04T16:48:32.354Z,94777.04
2019-03-04T16:51:03.915Z,94786.77
2019-03-04T16:53:39.555Z,94797.04
2019-03-04T16:56:13.035Z,94797.31
2019-03-04T16:58:46.029Z,94810.94
2019-03-04T17:01:17.477Z,94794.53
2019-03-04T17:03:48.926Z,94807.55
2019-03-04T17:06:22.158Z,94811.66
2019-03-04T17:08:54.938Z,94810.87
2019-03-04T17:11:26.120Z,94805.91
2019-03-04T17:13:58.060Z,94793.92
2019-03-04T17:16:30.072Z,94803.53
2019-03-04T17:19:04.217Z,94800.48
2019-03-04T17:21:37.228Z,94823.99
2019-03-04T17:24:10.196Z,94816.34
2019-03-04T17:26:42.195Z,94796.80
2019-03-04T17:29:16.168Z,94801.84
2019-03-04T17:31:49.081Z,94803.28
2019-03-04T17:34:58.498Z,94794.76
2019-03-04T17:37:31.323Z,94788.67
2019-03-04T17:40:04.139Z,94788.33
2019-03-04T17:42:36.241Z,94791.11
2019-03-04T17:45:12.318Z,94780.35
2019-03-04T17:47:43.509Z,94783.98
2019-03-04T17:50:18.409Z,94787.03
2019-03-04T17:52:53.865Z,94787.19
2019-03-04T17:58:50.165Z,94775.64
2019-03-04T18:01:21.365Z,94793.31
2019-03-04T18:03:55.299Z,94791.56
2019-03-04T18:06:30.103Z,94797.58
2019-03-04T18:09:05.330Z,94788.76
2019-03-04T18:11:38.509Z,94796.13
2019-03-04T18:14:10.604Z,94789.57
2019-03-04T18:16:43.092Z,94797.48
2019-03-04T18:19:17.184Z,94780.14
2019-03-04T18:21:49.246Z,94778.23
2019-03-04T18:24:23.767Z,94792.66
2019-03-04T18:27:05.197Z,94778.77
2019-03-04T18:30:01.102Z,94790.14
2019-03-04T18:33:26.654Z,94784.53
2019-03-04T18:36:20.551Z,94777.66
2019-03-04T18:39:39.590Z,94764.62
2019-03-04T18:42:49.013Z,94760.97
2019-03-04T18:45:51.293Z,94754.73
2019-03-04T18:48:57.288Z,94755.77
2019-03-04T18:51:31.005Z,94759.88
2019-03-04T18:54:07.864Z,94755.69
2019-03-04T18:56:40.645Z,94749.23
2019-03-04T18:59:13.681Z,94750.65
2019-03-04T19:01:49.050Z,94746.82
2019-03-04T19:04:25.056Z,94741.72
2019-03-04T19:06:56.541Z,94727.61
2019-03-04T19:09:28.605Z,94721.23
2019-03-04T19:12:03.182Z,94712.80
2019-03-04T19:14:36.237Z,94691.27
2019-03-04T19:17:08.051Z,94717.93
2019-03-04T19:19:41.640Z,94703.37
2019-03-04T19:22:13.518Z,94690.61
2019-03-04T19:24:46.754Z,94683.47
2019-03-04T19:27:20.402Z,94680.69
2019-03-04T19:29:52.077Z,94660.12
2019-03-04T19:32:25.633Z,94672.59
2019-03-04T19:34:58.903Z,94662.97
2019-03-04T19:37:31.779Z,94643.25
2019-03-04T19:40:06.262Z,94635.13
2019-03-04T19:42:40.185Z,94675.80
2019-03-04T19:45:14.849Z,94625.66
2019-03-04T19:47:46.598Z,94638.38
2019-03-04T19:50:19.961Z,94628.19
2019-03-04T19:52:51.869Z,94610.22
2019-03-04T19:55:25.918Z,94663.30
2019-03-04T19:57:58.928Z,94626.63
2019-03-04T20:00:32.861Z,94619.94
2019-03-04T20:03:17.008Z,94596.50
2019-03-04T20:05:49.937Z,94622.70
2019-03-04T20:08:23.245Z,94607.13
2019-03-04T20:10:54.776Z,94606.72
2019-03-04T20:13:26.759Z,94615.23
2019-03-04T20:15:59.992Z,94612.52
2019-03-04T20:18:32.029Z,94661.75
2019-03-04T20:21:04.877Z,94609.25
2019-03-04T20:23:36.083Z,94604.69
2019-03-04T20:26:08.015Z,94596.63
2019-03-04T20:28:41.023Z,94634.34
2019-03-04T20:31:14.084Z,94594.58
2019-03-04T20:33:47.055Z,94631.94
2019-03-04T20:36:19.945Z,94580.83
2019-03-04T20:38:52.953Z,94584.50
2019-03-04T20:41:26.176Z,94584.31
2019-03-04T20:43:59.843Z,94590.74
2019-03-04T20:46:32.060Z,94608.12
2019-03-04T20:49:04.920Z,94604.30
2019-03-04T20:51:38.246Z,94575.67
2019-03-04T20:54:11.205Z,94612.06
2019-03-04T20:56:43.165Z,94611.91
2019-03-04T20:59:16.053Z,94684.09
2019-03-04T21:01:51.608Z,94641.45
2019-03-04T21:04:25.037Z,94657.11
2019-03-04T21:07:00.621Z,94640.13
2019-03-04T21:09:32.153Z,94659.45
2019-03-04T21:12:05.623Z,94683.95
2019-03-04T21:14:38.277Z,94623.50
2019-03-04T21:17:12.302Z,94697.95
2019-03-04T21:19:43.557Z,94624.36
2019-03-04T21:22:16.140Z,94647.78
2019-03-04T21:24:50.092Z,94669.40
2019-03-04T21:27:23.152Z,94659.65
2019-03-04T21:30:29.673Z,94654.34
2019-03-04T21:33:12.479Z,94677.44
2019-03-04T21:36:23.222Z,94674.13
2019-03-04T21:38:58.237Z,94714.78
2019-03-04T21:42:07.734Z,94702.77
2019-03-04T21:45:10.428Z,94684.14
2019-03-04T21:47:46.486Z,94687.83
2019-03-04T21:50:24.158Z,94676.95
2019-03-04T21:53:06.656Z,94672.52
2019-03-04T21:55:46.992Z,94666.22
2019-03-04T21:58:20.648Z,94698.86
2019-03-04T22:01:00.005Z,94717.26
2019-03-04T22:03:35.013Z,94742.92
2019-03-04T22:06:07.654Z,94748.98
2019-03-04T22:08:41.820Z,94751.15
2019-03-04T22:11:13.608Z,94762.92
2019-03-04T22:13:45.729Z,94758.06
2019-03-04T22:16:17.731Z,94764.37
2019-03-04T22:18:53.126Z,94774.92
2019-03-04T22:21:24.539Z,94797.28
2019-03-04T22:24:00.963Z,94766.47
2019-03-04T22:26:34.419Z,94781.10
2019-03-04T22:29:07.408Z,94788.13
2019-03-04T22:31:41.431Z,94812.72
2019-03-04T22:34:17.074Z,94793.37
2019-03-04T22:36:51.166Z,94821.86
2019-03-04T22:39:24.823Z,94806.72
2019-03-04T22:41:58.195Z,94814.59
2019-03-04T22:44:29.763Z,94832.23
2019-03-04T22:47:02.708Z,94854.58
2019-03-04T22:53:11.946Z,94840.47
2019-03-04T22:55:43.291Z,94863.88
2019-03-04T22:58:28.260Z,94845.81
2019-03-04T23:01:41.329Z,94861.52
2019-03-04T23:04:37.179Z,94873.41
2019-03-04T23:07:22.426Z,94873.95
2019-03-04T23:10:17.264Z,94881.23
2019-03-04T23:12:53.926Z,94867.59
2019-03-04T23:15:25.951Z,94887.52
2019-03-04T23:17:58.743Z,94893.32
2019-03-04T23:20:31.768Z,94892.35
2019-03-04T23:23:04.669Z,94926.02
2019-03-04T23:25:37.994Z,94911.39
2019-03-04T23:28:11.845Z,94918.97
2019-03-04T23:30:43.425Z,94936.30
2019-03-04T23:33:15.074Z,94960.65
2019-03-04T23:35:47.263Z,94969.52
2019-03-04T23:38:19.891Z,94993.45
2019-03-04T23:40:52.844Z,94995.80
2019-03-04T23:43:24.825Z,95013.97
2019-03-04T23:45:56.426Z,95023.23
2019-03-04T23:48:29.865Z,95034.00
2019-03-04T23:51:02.720Z,95036.30
2019-03-04T23:53:34.846Z,95065.35
2019-03-04T23:56:07.737Z,95034.45
2019-03-04T23:58:40.010Z,95062.05
